sensor_id;sensor_type;location;lat;lon;timestamp;P1;durP1;ratioP1;P2;durP2;ratioP2
20828;SDS011;10575;50.124;8.582;2022-12-18T00:02:12;50.97;;;17.30;;
20828;SDS011;10575;50.124;8.582;2022-12-18T00:04:37;52.53;;;15.13;;
20828;SDS011;10575;50.124;8.582;2022-12-18T00:07:03;51.40;;;15.55;;
20828;SDS011;10575;50.124;8.582;2022-12-18T00:09:28;59.50;;;17.40;;
20828;SDS011;10575;50.124;8.582;2022-12-18T00:11:54;55.75;;;16.55;;
20828;SDS011;10575;50.124;8.582;2022-12-18T00:14:20;60.97;;;17.83;;
20828;SDS011;10575;50.124;8.582;2022-12-18T00:16:45;45.95;;;15.45;;
20828;SDS011;10575;50.124;8.582;2022-12-18T00:19:11;52.42;;;16.85;;
20828;SDS011;10575;50.124;8.582;2022-12-18T00:21:38;57.25;;;16.45;;
20828;SDS011;10575;50.124;8.582;2022-12-18T00:24:05;58.28;;;17.02;;
20828;SDS011;10575;50.124;8.582;2022-12-18T00:26:31;49.63;;;16.23;;
20828;SDS011;10575;50.124;8.582;2022-12-18T00:28:58;47.97;;;15.65;;
20828;SDS011;10575;50.124;8.582;2022-12-18T00:31:29;55.15;;;16.45;;
20828;SDS011;10575;50.124;8.582;2022-12-18T00:33:55;53.08;;;15.77;;
20828;SDS011;10575;50.124;8.582;2022-12-18T00:36:22;52.67;;;16.65;;
20828;SDS011;10575;50.124;8.582;2022-12-18T00:38:50;46.95;;;14.68;;
20828;SDS011;10575;50.124;8.582;2022-12-18T00:41:16;46.30;;;14.63;;
20828;SDS011;10575;50.124;8.582;2022-12-18T00:44:03;52.50;;;16.52;;
20828;SDS011;10575;50.124;8.582;2022-12-18T00:46:30;44.78;;;14.95;;
20828;SDS011;10575;50.124;8.582;2022-12-18T00:48:55;43.55;;;15.10;;
20828;SDS011;10575;50.124;8.582;2022-12-18T00:51:21;44.80;;;14.85;;
20828;SDS011;10575;50.124;8.582;2022-12-18T00:53:46;48.50;;;14.27;;
20828;SDS011;10575;50.124;8.582;2022-12-18T00:56:12;43.28;;;14.35;;
20828;SDS011;10575;50.124;8.582;2022-12-18T00:58:37;34.88;;;12.70;;
20828;SDS011;10575;50.124;8.582;2022-12-18T01:01:04;41.72;;;13.35;;
20828;SDS011;10575;50.124;8.582;2022-12-18T01:03:30;44.17;;;14.25;;
20828;SDS011;10575;50.124;8.582;2022-12-18T01:05:55;43.85;;;13.23;;
20828;SDS011;10575;50.124;8.582;2022-12-18T01:08:21;40.38;;;13.80;;
20828;SDS011;10575;50.124;8.582;2022-12-18T01:10:47;41.38;;;14.20;;
20828;SDS011;10575;50.124;8.582;2022-12-18T01:13:12;44.33;;;14.65;;
20828;SDS011;10575;50.124;8.582;2022-12-18T01:15:38;38.75;;;13.45;;
20828;SDS011;10575;50.124;8.582;2022-12-18T01:18:04;40.17;;;14.13;;
20828;SDS011;10575;50.124;8.582;2022-12-18T01:20:30;40.05;;;12.52;;
20828;SDS011;10575;50.124;8.582;2022-12-18T01:22:56;41.83;;;12.73;;
20828;SDS011;10575;50.124;8.582;2022-12-18T01:25:22;37.97;;;13.00;;
20828;SDS011;10575;50.124;8.582;2022-12-18T01:27:47;43.45;;;14.10;;
20828;SDS011;10575;50.124;8.582;2022-12-18T01:30:13;37.45;;;13.05;;
20828;SDS011;10575;50.124;8.582;2022-12-18T01:32:38;38.88;;;13.57;;
20828;SDS011;10575;50.124;8.582;2022-12-18T01:35:04;36.97;;;12.68;;
20828;SDS011;10575;50.124;8.582;2022-12-18T01:37:30;39.55;;;12.40;;
20828;SDS011;10575;50.124;8.582;2022-12-18T01:39:56;41.83;;;13.50;;
20828;SDS011;10575;50.124;8.582;2022-12-18T01:42:21;42.67;;;12.73;;
20828;SDS011;10575;50.124;8.582;2022-12-18T01:50:10;44.17;;;13.30;;
20828;SDS011;10575;50.124;8.582;2022-12-18T01:52:39;43.28;;;14.40;;
20828;SDS011;10575;50.124;8.582;2022-12-18T01:55:07;47.95;;;15.43;;
20828;SDS011;10575;50.124;8.582;2022-12-18T01:57:35;45.58;;;14.02;;
20828;SDS011;10575;50.124;8.582;2022-12-18T02:00:04;44.95;;;15.02;;
20828;SDS011;10575;50.124;8.582;2022-12-18T02:02:32;41.30;;;12.60;;
20828;SDS011;10575;50.124;8.582;2022-12-18T02:04:58;47.50;;;13.48;;
20828;SDS011;10575;50.124;8.582;2022-12-18T02:07:37;38.45;;;13.68;;
20828;SDS011;10575;50.124;8.582;2022-12-18T02:10:16;43.17;;;14.20;;
20828;SDS011;10575;50.124;8.582;2022-12-18T02:13:10;43.22;;;13.13;;
20828;SDS011;10575;50.124;8.582;2022-12-18T02:18:44;41.70;;;13.48;;
20828;SDS011;10575;50.124;8.582;2022-12-18T02:21:26;42.00;;;13.43;;
20828;SDS011;10575;50.124;8.582;2022-12-18T02:24:24;49.20;;;14.35;;
20828;SDS011;10575;50.124;8.582;2022-12-18T02:27:00;36.03;;;12.68;;
20828;SDS011;10575;50.124;8.582;2022-12-18T02:29:31;50.40;;;14.20;;
20828;SDS011;10575;50.124;8.582;2022-12-18T02:32:00;38.38;;;12.45;;
20828;SDS011;10575;50.124;8.582;2022-12-18T02:34:31;39.47;;;13.70;;
20828;SDS011;10575;50.124;8.582;2022-12-18T02:37:00;36.40;;;12.38;;
20828;SDS011;10575;50.124;8.582;2022-12-18T02:39:28;37.97;;;13.80;;
20828;SDS011;10575;50.124;8.582;2022-12-18T02:41:56;40.28;;;13.18;;
20828;SDS011;10575;50.124;8.582;2022-12-18T02:44:22;47.60;;;14.35;;
20828;SDS011;10575;50.124;8.582;2022-12-18T02:46:48;45.13;;;12.95;;
20828;SDS011;10575;50.124;8.582;2022-12-18T02:52:34;44.72;;;14.35;;
20828;SDS011;10575;50.124;8.582;2022-12-18T02:54:59;49.45;;;15.02;;
20828;SDS011;10575;50.124;8.582;2022-12-18T02:57:56;53.75;;;15.02;;
20828;SDS011;10575;50.124;8.582;2022-12-18T03:00:29;56.03;;;15.45;;
20828;SDS011;10575;50.124;8.582;2022-12-18T03:03:06;46.50;;;14.48;;
20828;SDS011;10575;50.124;8.582;2022-12-18T03:05:50;48.80;;;13.73;;
20828;SDS011;10575;50.124;8.582;2022-12-18T03:08:22;41.00;;;12.65;;
20828;SDS011;10575;50.124;8.582;2022-12-18T03:11:07;45.90;;;13.73;;
20828;SDS011;10575;50.124;8.582;2022-12-18T03:13:36;42.70;;;14.23;;
20828;SDS011;10575;50.124;8.582;2022-12-18T03:16:05;40.55;;;11.93;;
20828;SDS011;10575;50.124;8.582;2022-12-18T03:18:33;37.67;;;12.90;;
20828;SDS011;10575;50.124;8.582;2022-12-18T03:21:04;46.92;;;14.48;;
20828;SDS011;10575;50.124;8.582;2022-12-18T03:23:34;42.67;;;12.85;;
20828;SDS011;10575;50.124;8.582;2022-12-18T03:26:05;38.22;;;13.18;;
20828;SDS011;10575;50.124;8.582;2022-12-18T03:28:35;42.40;;;13.57;;
20828;SDS011;10575;50.124;8.582;2022-12-18T03:31:04;47.85;;;14.10;;
20828;SDS011;10575;50.124;8.582;2022-12-18T03:33:37;36.80;;;11.32;;
20828;SDS011;10575;50.124;8.582;2022-12-18T03:36:08;43.33;;;13.20;;
20828;SDS011;10575;50.124;8.582;2022-12-18T03:38:34;37.13;;;11.65;;
20828;SDS011;10575;50.124;8.582;2022-12-18T03:44:04;34.92;;;11.90;;
20828;SDS011;10575;50.124;8.582;2022-12-18T03:46:54;33.20;;;11.55;;
20828;SDS011;10575;50.124;8.582;2022-12-18T03:52:25;41.55;;;13.70;;
20828;SDS011;10575;50.124;8.582;2022-12-18T03:54:55;43.70;;;13.57;;
20828;SDS011;10575;50.124;8.582;2022-12-18T03:57:24;49.88;;;14.65;;
20828;SDS011;10575;50.124;8.582;2022-12-18T03:59:54;41.15;;;13.27;;
20828;SDS011;10575;50.124;8.582;2022-12-18T04:02:24;41.20;;;14.00;;
20828;SDS011;10575;50.124;8.582;2022-12-18T04:04:51;48.42;;;13.77;;
20828;SDS011;10575;50.124;8.582;2022-12-18T04:07:18;43.25;;;12.88;;
20828;SDS011;10575;50.124;8.582;2022-12-18T04:09:46;46.20;;;14.30;;
20828;SDS011;10575;50.124;8.582;2022-12-18T04:12:13;45.25;;;14.20;;
20828;SDS011;10575;50.124;8.582;2022-12-18T04:14:39;52.15;;;14.82;;
20828;SDS011;10575;50.124;8.582;2022-12-18T04:17:04;45.78;;;15.10;;
20828;SDS011;10575;50.124;8.582;2022-12-18T04:19:30;46.55;;;14.18;;
20828;SDS011;10575;50.124;8.582;2022-12-18T04:21:55;44.55;;;13.95;;
20828;SDS011;10575;50.124;8.582;2022-12-18T04:24:21;45.67;;;13.18;;
20828;SDS011;10575;50.124;8.582;2022-12-18T04:26:46;41.65;;;13.60;;
20828;SDS011;10575;50.124;8.582;2022-12-18T04:29:12;37.35;;;13.38;;
20828;SDS011;10575;50.124;8.582;2022-12-18T04:31:38;43.28;;;12.18;;
20828;SDS011;10575;50.124;8.582;2022-12-18T04:34:03;38.63;;;13.40;;
20828;SDS011;10575;50.124;8.582;2022-12-18T04:36:29;43.38;;;13.75;;
20828;SDS011;10575;50.124;8.582;2022-12-18T04:38:55;41.88;;;13.32;;
20828;SDS011;10575;50.124;8.582;2022-12-18T04:41:20;43.67;;;14.45;;
20828;SDS011;10575;50.124;8.582;2022-12-18T04:43:46;41.78;;;13.18;;
20828;SDS011;10575;50.124;8.582;2022-12-18T04:46:11;40.35;;;13.82;;
20828;SDS011;10575;50.124;8.582;2022-12-18T04:48:37;40.97;;;13.88;;
20828;SDS011;10575;50.124;8.582;2022-12-18T04:51:03;39.10;;;13.27;;
20828;SDS011;10575;50.124;8.582;2022-12-18T04:53:30;40.35;;;14.05;;
20828;SDS011;10575;50.124;8.582;2022-12-18T04:56:30;44.35;;;14.68;;
20828;SDS011;10575;50.124;8.582;2022-12-18T04:58:47;47.50;;;14.38;;
20828;SDS011;10575;50.124;8.582;2022-12-18T05:01:16;41.13;;;14.75;;
20828;SDS011;10575;50.124;8.582;2022-12-18T05:03:43;44.58;;;15.95;;
20828;SDS011;10575;50.124;8.582;2022-12-18T05:06:08;41.47;;;14.90;;
20828;SDS011;10575;50.124;8.582;2022-12-18T05:08:34;44.90;;;14.50;;
20828;SDS011;10575;50.124;8.582;2022-12-18T05:11:01;47.85;;;15.10;;
20828;SDS011;10575;50.124;8.582;2022-12-18T05:13:28;47.97;;;15.32;;
20828;SDS011;10575;50.124;8.582;2022-12-18T05:15:54;34.78;;;12.90;;
20828;SDS011;10575;50.124;8.582;2022-12-18T05:18:20;43.90;;;13.93;;
20828;SDS011;10575;50.124;8.582;2022-12-18T05:20:47;49.03;;;14.82;;
20828;SDS011;10575;50.124;8.582;2022-12-18T05:23:14;48.92;;;14.75;;
20828;SDS011;10575;50.124;8.582;2022-12-18T05:25:40;49.10;;;14.02;;
20828;SDS011;10575;50.124;8.582;2022-12-18T05:28:05;52.35;;;15.85;;
20828;SDS011;10575;50.124;8.582;2022-12-18T05:30:31;61.47;;;16.67;;
20828;SDS011;10575;50.124;8.582;2022-12-18T05:32:56;53.92;;;15.35;;
20828;SDS011;10575;50.124;8.582;2022-12-18T05:35:22;46.75;;;14.32;;
20828;SDS011;10575;50.124;8.582;2022-12-18T05:37:47;51.15;;;14.68;;
20828;SDS011;10575;50.124;8.582;2022-12-18T05:40:13;44.78;;;14.52;;
20828;SDS011;10575;50.124;8.582;2022-12-18T05:42:38;43.50;;;13.77;;
20828;SDS011;10575;50.124;8.582;2022-12-18T05:45:04;48.33;;;13.48;;
20828;SDS011;10575;50.124;8.582;2022-12-18T05:47:30;41.22;;;13.13;;
20828;SDS011;10575;50.124;8.582;2022-12-18T05:49:56;42.42;;;13.57;;
20828;SDS011;10575;50.124;8.582;2022-12-18T05:52:21;44.25;;;15.63;;
20828;SDS011;10575;50.124;8.582;2022-12-18T05:54:47;42.55;;;14.05;;
20828;SDS011;10575;50.124;8.582;2022-12-18T05:57:12;54.15;;;15.50;;
20828;SDS011;10575;50.124;8.582;2022-12-18T05:59:38;44.00;;;13.95;;
20828;SDS011;10575;50.124;8.582;2022-12-18T06:02:03;47.47;;;13.93;;
20828;SDS011;10575;50.124;8.582;2022-12-18T06:04:29;44.15;;;14.45;;
20828;SDS011;10575;50.124;8.582;2022-12-18T06:06:55;43.45;;;14.18;;
20828;SDS011;10575;50.124;8.582;2022-12-18T06:09:20;46.50;;;13.57;;
20828;SDS011;10575;50.124;8.582;2022-12-18T06:11:46;44.80;;;14.02;;
20828;SDS011;10575;50.124;8.582;2022-12-18T06:14:11;52.60;;;15.48;;
20828;SDS011;10575;50.124;8.582;2022-12-18T06:16:37;44.90;;;14.23;;
20828;SDS011;10575;50.124;8.582;2022-12-18T06:19:03;44.85;;;14.82;;
20828;SDS011;10575;50.124;8.582;2022-12-18T06:21:30;45.28;;;16.00;;
20828;SDS011;10575;50.124;8.582;2022-12-18T06:23:56;43.97;;;13.70;;
20828;SDS011;10575;50.124;8.582;2022-12-18T06:26:22;45.33;;;13.70;;
20828;SDS011;10575;50.124;8.582;2022-12-18T06:28:47;41.22;;;13.65;;
20828;SDS011;10575;50.124;8.582;2022-12-18T06:31:13;42.53;;;13.57;;
20828;SDS011;10575;50.124;8.582;2022-12-18T06:33:39;42.88;;;15.02;;
20828;SDS011;10575;50.124;8.582;2022-12-18T06:36:09;48.05;;;14.77;;
20828;SDS011;10575;50.124;8.582;2022-12-18T06:38:36;49.55;;;14.88;;
20828;SDS011;10575;50.124;8.582;2022-12-18T06:41:07;41.80;;;14.05;;
20828;SDS011;10575;50.124;8.582;2022-12-18T06:43:36;51.63;;;16.17;;
20828;SDS011;10575;50.124;8.582;2022-12-18T06:46:02;42.10;;;13.77;;
20828;SDS011;10575;50.124;8.582;2022-12-18T06:48:29;45.38;;;14.88;;
20828;SDS011;10575;50.124;8.582;2022-12-18T06:50:54;41.90;;;14.20;;
20828;SDS011;10575;50.124;8.582;2022-12-18T06:53:20;47.10;;;14.23;;
20828;SDS011;10575;50.124;8.582;2022-12-18T06:55:46;44.05;;;13.73;;
20828;SDS011;10575;50.124;8.582;2022-12-18T06:58:11;43.10;;;14.15;;
20828;SDS011;10575;50.124;8.582;2022-12-18T07:00:37;45.78;;;15.23;;
20828;SDS011;10575;50.124;8.582;2022-12-18T07:03:02;49.40;;;15.48;;
20828;SDS011;10575;50.124;8.582;2022-12-18T07:05:28;53.08;;;16.42;;
20828;SDS011;10575;50.124;8.582;2022-12-18T07:07:54;50.72;;;15.73;;
20828;SDS011;10575;50.124;8.582;2022-12-18T07:10:19;47.33;;;15.50;;
20828;SDS011;10575;50.124;8.582;2022-12-18T07:12:45;53.60;;;14.70;;
20828;SDS011;10575;50.124;8.582;2022-12-18T07:15:10;57.47;;;16.48;;
20828;SDS011;10575;50.124;8.582;2022-12-18T07:17:36;39.03;;;14.35;;
20828;SDS011;10575;50.124;8.582;2022-12-18T07:20:02;41.60;;;14.38;;
20828;SDS011;10575;50.124;8.582;2022-12-18T07:22:27;43.72;;;14.77;;
20828;SDS011;10575;50.124;8.582;2022-12-18T07:24:53;42.42;;;13.82;;
20828;SDS011;10575;50.124;8.582;2022-12-18T07:27:18;48.10;;;14.98;;
20828;SDS011;10575;50.124;8.582;2022-12-18T07:29:44;45.83;;;15.55;;
20828;SDS011;10575;50.124;8.582;2022-12-18T07:32:10;47.25;;;15.82;;
20828;SDS011;10575;50.124;8.582;2022-12-18T07:34:35;43.75;;;14.70;;
20828;SDS011;10575;50.124;8.582;2022-12-18T07:37:01;48.10;;;16.42;;
20828;SDS011;10575;50.124;8.582;2022-12-18T07:39:27;56.15;;;15.45;;
20828;SDS011;10575;50.124;8.582;2022-12-18T07:41:52;55.33;;;16.25;;
20828;SDS011;10575;50.124;8.582;2022-12-18T07:44:36;49.40;;;15.50;;
20828;SDS011;10575;50.124;8.582;2022-12-18T07:47:02;44.83;;;14.38;;
20828;SDS011;10575;50.124;8.582;2022-12-18T07:49:28;45.40;;;15.02;;
20828;SDS011;10575;50.124;8.582;2022-12-18T07:51:54;46.65;;;14.35;;
20828;SDS011;10575;50.124;8.582;2022-12-18T07:54:20;49.58;;;14.77;;
20828;SDS011;10575;50.124;8.582;2022-12-18T07:56:46;40.33;;;15.02;;
20828;SDS011;10575;50.124;8.582;2022-12-18T07:59:12;46.00;;;14.57;;
20828;SDS011;10575;50.124;8.582;2022-12-18T08:01:37;43.10;;;14.65;;
20828;SDS011;10575;50.124;8.582;2022-12-18T08:04:03;49.15;;;15.35;;
20828;SDS011;10575;50.124;8.582;2022-12-18T08:06:28;42.75;;;14.65;;
20828;SDS011;10575;50.124;8.582;2022-12-18T08:08:54;49.15;;;14.68;;
20828;SDS011;10575;50.124;8.582;2022-12-18T08:11:21;47.75;;;14.23;;
20828;SDS011;10575;50.124;8.582;2022-12-18T08:13:47;52.35;;;15.02;;
20828;SDS011;10575;50.124;8.582;2022-12-18T08:16:13;43.08;;;14.60;;
20828;SDS011;10575;50.124;8.582;2022-12-18T08:18:39;46.50;;;15.13;;
20828;SDS011;10575;50.124;8.582;2022-12-18T08:21:08;47.55;;;16.23;;
20828;SDS011;10575;50.124;8.582;2022-12-18T08:23:37;46.20;;;15.38;;
20828;SDS011;10575;50.124;8.582;2022-12-18T08:26:03;50.10;;;15.55;;
20828;SDS011;10575;50.124;8.582;2022-12-18T08:28:29;48.05;;;16.10;;
20828;SDS011;10575;50.124;8.582;2022-12-18T08:30:54;53.15;;;15.73;;
20828;SDS011;10575;50.124;8.582;2022-12-18T08:33:20;48.55;;;15.95;;
20828;SDS011;10575;50.124;8.582;2022-12-18T08:35:45;46.33;;;15.77;;
20828;SDS011;10575;50.124;8.582;2022-12-18T08:38:11;52.80;;;17.02;;
20828;SDS011;10575;50.124;8.582;2022-12-18T08:40:36;51.28;;;15.80;;
20828;SDS011;10575;50.124;8.582;2022-12-18T08:43:02;46.58;;;17.38;;
20828;SDS011;10575;50.124;8.582;2022-12-18T08:45:46;53.58;;;18.25;;
20828;SDS011;10575;50.124;8.582;2022-12-18T08:48:11;60.70;;;18.40;;
20828;SDS011;10575;50.124;8.582;2022-12-18T08:50:37;48.33;;;17.38;;
20828;SDS011;10575;50.124;8.582;2022-12-18T08:53:03;49.58;;;17.35;;
20828;SDS011;10575;50.124;8.582;2022-12-18T08:55:28;54.83;;;18.30;;
20828;SDS011;10575;50.124;8.582;2022-12-18T08:57:54;54.50;;;18.02;;
20828;SDS011;10575;50.124;8.582;2022-12-18T09:00:19;51.47;;;17.60;;
20828;SDS011;10575;50.124;8.582;2022-12-18T09:02:45;52.25;;;17.83;;
20828;SDS011;10575;50.124;8.582;2022-12-18T09:05:10;47.63;;;16.58;;
20828;SDS011;10575;50.124;8.582;2022-12-18T09:07:36;40.35;;;14.88;;
20828;SDS011;10575;50.124;8.582;2022-12-18T09:10:02;48.90;;;16.80;;
20828;SDS011;10575;50.124;8.582;2022-12-18T09:12:28;44.92;;;17.33;;
20828;SDS011;10575;50.124;8.582;2022-12-18T09:14:53;43.88;;;17.20;;
20828;SDS011;10575;50.124;8.582;2022-12-18T09:17:19;55.47;;;19.23;;
20828;SDS011;10575;50.124;8.582;2022-12-18T09:19:44;43.47;;;17.70;;
20828;SDS011;10575;50.124;8.582;2022-12-18T09:22:10;48.05;;;17.95;;
20828;SDS011;10575;50.124;8.582;2022-12-18T09:24:35;48.60;;;19.70;;
20828;SDS011;10575;50.124;8.582;2022-12-18T09:27:01;50.15;;;19.13;;
20828;SDS011;10575;50.124;8.582;2022-12-18T09:29:26;56.83;;;21.42;;
20828;SDS011;10575;50.124;8.582;2022-12-18T09:31:52;58.90;;;20.58;;
20828;SDS011;10575;50.124;8.582;2022-12-18T09:34:18;53.05;;;19.88;;
20828;SDS011;10575;50.124;8.582;2022-12-18T09:36:45;58.88;;;20.08;;
20828;SDS011;10575;50.124;8.582;2022-12-18T09:39:11;58.83;;;20.48;;
20828;SDS011;10575;50.124;8.582;2022-12-18T09:41:47;55.10;;;20.33;;
20828;SDS011;10575;50.124;8.582;2022-12-18T09:47:02;53.15;;;20.08;;
20828;SDS011;10575;50.124;8.582;2022-12-18T09:49:47;59.15;;;19.70;;
20828;SDS011;10575;50.124;8.582;2022-12-18T09:52:19;58.40;;;23.80;;
20828;SDS011;10575;50.124;8.582;2022-12-18T09:55:00;60.90;;;22.52;;
20828;SDS011;10575;50.124;8.582;2022-12-18T09:57:33;58.45;;;21.85;;
20828;SDS011;10575;50.124;8.582;2022-12-18T10:00:06;68.20;;;23.73;;
20828;SDS011;10575;50.124;8.582;2022-12-18T10:02:42;59.55;;;23.35;;
20828;SDS011;10575;50.124;8.582;2022-12-18T10:05:12;60.35;;;22.67;;
20828;SDS011;10575;50.124;8.582;2022-12-18T10:07:47;64.18;;;25.15;;
20828;SDS011;10575;50.124;8.582;2022-12-18T10:10:15;61.63;;;23.60;;
20828;SDS011;10575;50.124;8.582;2022-12-18T10:13:02;58.22;;;24.30;;
20828;SDS011;10575;50.124;8.582;2022-12-18T10:18:26;59.08;;;22.92;;
20828;SDS011;10575;50.124;8.582;2022-12-18T10:24:25;71.65;;;27.10;;
20828;SDS011;10575;50.124;8.582;2022-12-18T10:27:16;64.47;;;24.90;;
20828;SDS011;10575;50.124;8.582;2022-12-18T10:29:43;61.85;;;23.77;;
20828;SDS011;10575;50.124;8.582;2022-12-18T10:32:14;76.00;;;28.20;;
20828;SDS011;10575;50.124;8.582;2022-12-18T10:34:44;67.07;;;25.33;;
20828;SDS011;10575;50.124;8.582;2022-12-18T10:37:13;66.53;;;23.65;;
20828;SDS011;10575;50.124;8.582;2022-12-18T10:39:43;68.07;;;25.08;;
20828;SDS011;10575;50.124;8.582;2022-12-18T10:42:10;69.15;;;24.38;;
20828;SDS011;10575;50.124;8.582;2022-12-18T10:44:41;64.38;;;23.88;;
20828;SDS011;10575;50.124;8.582;2022-12-18T10:47:10;71.88;;;24.85;;
20828;SDS011;10575;50.124;8.582;2022-12-18T10:49:40;63.47;;;22.92;;
20828;SDS011;10575;50.124;8.582;2022-12-18T10:52:20;66.20;;;24.33;;
20828;SDS011;10575;50.124;8.582;2022-12-18T10:54:57;66.15;;;24.27;;
20828;SDS011;10575;50.124;8.582;2022-12-18T10:57:36;66.20;;;24.58;;
20828;SDS011;10575;50.124;8.582;2022-12-18T11:02:47;79.95;;;28.25;;
20828;SDS011;10575;50.124;8.582;2022-12-18T11:05:30;83.22;;;28.63;;
20828;SDS011;10575;50.124;8.582;2022-12-18T11:08:01;77.78;;;26.98;;
20828;SDS011;10575;50.124;8.582;2022-12-18T11:10:30;70.97;;;25.98;;
20828;SDS011;10575;50.124;8.582;2022-12-18T11:13:11;67.72;;;24.90;;
20828;SDS011;10575;50.124;8.582;2022-12-18T11:15:47;66.13;;;25.00;;
20828;SDS011;10575;50.124;8.582;2022-12-18T11:18:16;71.40;;;22.77;;
20828;SDS011;10575;50.124;8.582;2022-12-18T11:20:44;71.78;;;24.00;;
20828;SDS011;10575;50.124;8.582;2022-12-18T11:23:16;75.18;;;25.10;;
20828;SDS011;10575;50.124;8.582;2022-12-18T11:28:40;72.05;;;25.85;;
20828;SDS011;10575;50.124;8.582;2022-12-18T11:33:34;81.80;;;26.50;;
20828;SDS011;10575;50.124;8.582;2022-12-18T11:36:02;77.82;;;25.52;;
20828;SDS011;10575;50.124;8.582;2022-12-18T11:38:30;72.47;;;23.98;;
20828;SDS011;10575;50.124;8.582;2022-12-18T11:46:15;67.28;;;23.95;;
20828;SDS011;10575;50.124;8.582;2022-12-18T11:48:45;65.50;;;22.85;;
20828;SDS011;10575;50.124;8.582;2022-12-18T11:51:36;70.05;;;24.50;;
20828;SDS011;10575;50.124;8.582;2022-12-18T11:54:14;76.22;;;25.75;;
20828;SDS011;10575;50.124;8.582;2022-12-18T11:56:54;67.28;;;24.23;;
20828;SDS011;10575;50.124;8.582;2022-12-18T11:59:33;73.63;;;25.50;;
20828;SDS011;10575;50.124;8.582;2022-12-18T12:02:20;74.15;;;25.85;;
20828;SDS011;10575;50.124;8.582;2022-12-18T12:07:57;61.90;;;20.77;;
20828;SDS011;10575;50.124;8.582;2022-12-18T12:10:36;69.32;;;24.33;;
20828;SDS011;10575;50.124;8.582;2022-12-18T12:13:17;66.45;;;23.65;;
20828;SDS011;10575;50.124;8.582;2022-12-18T12:16:00;62.42;;;21.75;;
20828;SDS011;10575;50.124;8.582;2022-12-18T12:22:06;68.38;;;24.00;;
20828;SDS011;10575;50.124;8.582;2022-12-18T12:27:49;62.47;;;22.10;;
20828;SDS011;10575;50.124;8.582;2022-12-18T12:30:50;68.68;;;22.25;;
20828;SDS011;10575;50.124;8.582;2022-12-18T12:36:14;76.90;;;23.65;;
20828;SDS011;10575;50.124;8.582;2022-12-18T12:38:54;69.10;;;22.88;;
20828;SDS011;10575;50.124;8.582;2022-12-18T12:41:25;69.28;;;23.95;;
20828;SDS011;10575;50.124;8.582;2022-12-18T12:45:17;78.55;;;23.25;;
20828;SDS011;10575;50.124;8.582;2022-12-18T12:47:14;72.95;;;23.63;;
20828;SDS011;10575;50.124;8.582;2022-12-18T12:49:45;70.53;;;23.02;;
20828;SDS011;10575;50.124;8.582;2022-12-18T12:52:15;76.82;;;25.20;;
20828;SDS011;10575;50.124;8.582;2022-12-18T12:54:45;72.35;;;23.60;;
20828;SDS011;10575;50.124;8.582;2022-12-18T12:57:19;67.28;;;24.35;;
20828;SDS011;10575;50.124;8.582;2022-12-18T12:59:52;71.97;;;24.40;;
20828;SDS011;10575;50.124;8.582;2022-12-18T13:02:30;69.10;;;23.60;;
20828;SDS011;10575;50.124;8.582;2022-12-18T13:08:06;74.95;;;23.55;;
20828;SDS011;10575;50.124;8.582;2022-12-18T13:10:35;77.15;;;26.00;;
20828;SDS011;10575;50.124;8.582;2022-12-18T13:13:14;77.60;;;25.30;;
20828;SDS011;10575;50.124;8.582;2022-12-18T13:15:45;70.95;;;25.05;;
20828;SDS011;10575;50.124;8.582;2022-12-18T13:18:29;65.85;;;24.08;;
20828;SDS011;10575;50.124;8.582;2022-12-18T13:23:31;75.90;;;23.45;;
20828;SDS011;10575;50.124;8.582;2022-12-18T13:26:28;69.65;;;23.92;;
20828;SDS011;10575;50.124;8.582;2022-12-18T13:28:54;75.47;;;24.13;;
20828;SDS011;10575;50.124;8.582;2022-12-18T13:34:18;62.50;;;22.23;;
20828;SDS011;10575;50.124;8.582;2022-12-18T13:36:45;73.00;;;24.27;;
20828;SDS011;10575;50.124;8.582;2022-12-18T13:39:20;69.15;;;23.88;;
20828;SDS011;10575;50.124;8.582;2022-12-18T13:46:59;69.03;;;23.35;;
20828;SDS011;10575;50.124;8.582;2022-12-18T13:49:36;71.43;;;23.05;;
20828;SDS011;10575;50.124;8.582;2022-12-18T13:52:15;73.82;;;23.38;;
20828;SDS011;10575;50.124;8.582;2022-12-18T13:54:45;68.65;;;24.27;;
20828;SDS011;10575;50.124;8.582;2022-12-18T13:57:34;60.83;;;22.25;;
20828;SDS011;10575;50.124;8.582;2022-12-18T14:00:40;71.38;;;22.85;;
20828;SDS011;10575;50.124;8.582;2022-12-18T14:02:57;74.63;;;24.92;;
20828;SDS011;10575;50.124;8.582;2022-12-18T14:05:28;66.95;;;23.33;;
20828;SDS011;10575;50.124;8.582;2022-12-18T14:07:58;77.32;;;25.60;;
20828;SDS011;10575;50.124;8.582;2022-12-18T14:10:27;65.40;;;22.63;;
20828;SDS011;10575;50.124;8.582;2022-12-18T14:12:53;67.57;;;23.70;;
20828;SDS011;10575;50.124;8.582;2022-12-18T14:17:50;66.70;;;23.08;;
20828;SDS011;10575;50.124;8.582;2022-12-18T14:20:17;67.40;;;21.17;;
20828;SDS011;10575;50.124;8.582;2022-12-18T14:22:43;71.00;;;22.92;;
20828;SDS011;10575;50.124;8.582;2022-12-18T14:25:21;70.57;;;23.02;;
20828;SDS011;10575;50.124;8.582;2022-12-18T14:33:08;66.30;;;22.17;;
20828;SDS011;10575;50.124;8.582;2022-12-18T14:35:43;65.50;;;20.58;;
20828;SDS011;10575;50.124;8.582;2022-12-18T14:38:32;66.20;;;21.92;;
20828;SDS011;10575;50.124;8.582;2022-12-18T14:41:00;59.47;;;21.20;;
20828;SDS011;10575;50.124;8.582;2022-12-18T14:43:28;62.88;;;21.27;;
20828;SDS011;10575;50.124;8.582;2022-12-18T14:45:57;74.80;;;22.85;;
20828;SDS011;10575;50.124;8.582;2022-12-18T14:48:35;63.05;;;22.27;;
20828;SDS011;10575;50.124;8.582;2022-12-18T14:51:04;63.35;;;22.20;;
20828;SDS011;10575;50.124;8.582;2022-12-18T14:53:42;62.45;;;21.55;;
20828;SDS011;10575;50.124;8.582;2022-12-18T14:56:28;68.20;;;22.15;;
20828;SDS011;10575;50.124;8.582;2022-12-18T14:59:20;62.78;;;22.65;;
20828;SDS011;10575;50.124;8.582;2022-12-18T15:01:53;60.97;;;21.35;;
20828;SDS011;10575;50.124;8.582;2022-12-18T15:04:25;69.60;;;22.60;;
20828;SDS011;10575;50.124;8.582;2022-12-18T15:07:03;68.88;;;21.00;;
20828;SDS011;10575;50.124;8.582;2022-12-18T15:09:29;66.10;;;21.75;;
20828;SDS011;10575;50.124;8.582;2022-12-18T15:11:59;68.90;;;22.20;;
20828;SDS011;10575;50.124;8.582;2022-12-18T15:14:33;62.88;;;20.88;;
20828;SDS011;10575;50.124;8.582;2022-12-18T15:17:04;67.72;;;21.55;;
20828;SDS011;10575;50.124;8.582;2022-12-18T15:19:44;53.97;;;21.70;;
20828;SDS011;10575;50.124;8.582;2022-12-18T15:22:22;61.83;;;21.77;;
20828;SDS011;10575;50.124;8.582;2022-12-18T15:24:51;63.33;;;21.15;;
20828;SDS011;10575;50.124;8.582;2022-12-18T15:27:21;67.20;;;22.65;;
20828;SDS011;10575;50.124;8.582;2022-12-18T15:30:02;71.68;;;21.75;;
20828;SDS011;10575;50.124;8.582;2022-12-18T15:32:48;66.28;;;22.50;;
20828;SDS011;10575;50.124;8.582;2022-12-18T15:35:20;64.60;;;21.27;;
20828;SDS011;10575;50.124;8.582;2022-12-18T15:37:50;70.70;;;23.33;;
20828;SDS011;10575;50.124;8.582;2022-12-18T15:40:17;59.30;;;20.25;;
20828;SDS011;10575;50.124;8.582;2022-12-18T15:42:45;68.00;;;23.83;;
20828;SDS011;10575;50.124;8.582;2022-12-18T15:45:30;68.68;;;23.08;;
20828;SDS011;10575;50.124;8.582;2022-12-18T15:47:55;62.30;;;22.40;;
20828;SDS011;10575;50.124;8.582;2022-12-18T15:50:21;72.07;;;22.85;;
20828;SDS011;10575;50.124;8.582;2022-12-18T15:52:48;71.97;;;22.52;;